Concepcion del Uruguay, Argentina
Current Conditions -  °F | °C
As of 8:00 PM on Wednesday 22 Oct 2014 (Local Time) from SUSO Reporting Station
Clear Clear  
Wind Chill: 79°   Ceiling: Unl
Heat Index: 80°   Visibility: 6mi
Dew Point: 59°   Wind: 7mph
Humidity: 51%   Direction: 90°E
Pressure: 29.97"   Gusts: NA
Location:  32.58°S, 58.58°W
Report Text: SUSO 222300Z 09006KT CAVOK 26/15 Q1015
Loading
Personal Weather Stations






























Interactive Weather Map New forecast layout! Learn more

10-Day Weather Forecast

Advertisements
Track Severe Weather on mobile